sensor_id;sensor_type;location;lat;lon;timestamp;P1;durP1;ratioP1;P2;durP2;ratioP2
72949;SDS011;64868;45.710;9.590;2022-12-18T00:02:01;24.42;;;15.50;;
72949;SDS011;64868;45.710;9.590;2022-12-18T00:04:29;30.48;;;16.85;;
72949;SDS011;64868;45.710;9.590;2022-12-18T00:06:56;27.13;;;16.13;;
72949;SDS011;64868;45.710;9.590;2022-12-18T00:09:24;28.42;;;16.23;;
72949;SDS011;64868;45.710;9.590;2022-12-18T00:11:52;25.05;;;15.50;;
72949;SDS011;64868;45.710;9.590;2022-12-18T00:14:19;26.42;;;16.27;;
72949;SDS011;64868;45.710;9.590;2022-12-18T00:16:45;25.55;;;14.57;;
72949;SDS011;64868;45.710;9.590;2022-12-18T00:19:12;25.42;;;14.30;;
72949;SDS011;64868;45.710;9.590;2022-12-18T00:21:40;21.20;;;13.05;;
72949;SDS011;64868;45.710;9.590;2022-12-18T00:24:08;24.25;;;14.85;;
72949;SDS011;64868;45.710;9.590;2022-12-18T00:26:35;26.17;;;14.95;;
72949;SDS011;64868;45.710;9.590;2022-12-18T00:31:47;21.45;;;13.20;;
72949;SDS011;64868;45.710;9.590;2022-12-18T00:34:12;22.80;;;13.05;;
72949;SDS011;64868;45.710;9.590;2022-12-18T00:36:39;23.50;;;13.90;;
72949;SDS011;64868;45.710;9.590;2022-12-18T00:39:05;23.95;;;13.07;;
72949;SDS011;64868;45.710;9.590;2022-12-18T00:41:30;22.55;;;12.73;;
72949;SDS011;64868;45.710;9.590;2022-12-18T00:44:15;19.23;;;11.30;;
72949;SDS011;64868;45.710;9.590;2022-12-18T00:46:42;19.50;;;11.93;;
72949;SDS011;64868;45.710;9.590;2022-12-18T00:49:09;19.48;;;11.55;;
72949;SDS011;64868;45.710;9.590;2022-12-18T00:51:35;19.48;;;11.07;;
72949;SDS011;64868;45.710;9.590;2022-12-18T00:54:00;21.50;;;12.13;;
72949;SDS011;64868;45.710;9.590;2022-12-18T00:56:26;17.88;;;10.95;;
72949;SDS011;64868;45.710;9.590;2022-12-18T00:58:52;19.75;;;11.40;;
72949;SDS011;64868;45.710;9.590;2022-12-18T01:01:17;18.10;;;10.25;;
72949;SDS011;64868;45.710;9.590;2022-12-18T01:03:45;18.15;;;10.30;;
72949;SDS011;64868;45.710;9.590;2022-12-18T01:06:12;19.48;;;10.77;;
72949;SDS011;64868;45.710;9.590;2022-12-18T01:08:38;20.50;;;10.75;;
72949;SDS011;64868;45.710;9.590;2022-12-18T01:11:08;18.55;;;10.10;;
72949;SDS011;64868;45.710;9.590;2022-12-18T01:13:34;19.40;;;10.93;;
72949;SDS011;64868;45.710;9.590;2022-12-18T01:16:02;19.25;;;10.52;;
72949;SDS011;64868;45.710;9.590;2022-12-18T01:18:29;19.48;;;11.07;;
72949;SDS011;64868;45.710;9.590;2022-12-18T01:20:56;18.10;;;10.57;;
72949;SDS011;64868;45.710;9.590;2022-12-18T01:23:27;19.13;;;11.02;;
72949;SDS011;64868;45.710;9.590;2022-12-18T01:25:55;18.35;;;10.32;;
72949;SDS011;64868;45.710;9.590;2022-12-18T01:28:24;16.40;;;9.95;;
72949;SDS011;64868;45.710;9.590;2022-12-18T01:30:50;17.02;;;10.07;;
72949;SDS011;64868;45.710;9.590;2022-12-18T01:33:15;18.33;;;10.07;;
72949;SDS011;64868;45.710;9.590;2022-12-18T01:35:41;20.38;;;11.43;;
72949;SDS011;64868;45.710;9.590;2022-12-18T01:38:07;19.10;;;11.82;;
72949;SDS011;64868;45.710;9.590;2022-12-18T01:40:33;17.95;;;10.38;;
72949;SDS011;64868;45.710;9.590;2022-12-18T01:42:59;19.23;;;11.07;;
72949;SDS011;64868;45.710;9.590;2022-12-18T01:45:26;21.33;;;11.48;;
72949;SDS011;64868;45.710;9.590;2022-12-18T01:47:55;17.90;;;10.73;;
72949;SDS011;64868;45.710;9.590;2022-12-18T01:50:25;21.98;;;11.65;;
72949;SDS011;64868;45.710;9.590;2022-12-18T01:53:00;18.77;;;11.10;;
72949;SDS011;64868;45.710;9.590;2022-12-18T01:55:31;19.45;;;11.10;;
72949;SDS011;64868;45.710;9.590;2022-12-18T01:58:02;16.58;;;9.75;;
72949;SDS011;64868;45.710;9.590;2022-12-18T02:00:29;18.33;;;9.93;;
72949;SDS011;64868;45.710;9.590;2022-12-18T02:02:54;16.55;;;9.57;;
72949;SDS011;64868;45.710;9.590;2022-12-18T02:08:08;17.58;;;9.45;;
72949;SDS011;64868;45.710;9.590;2022-12-18T02:13:46;15.43;;;8.25;;
72949;SDS011;64868;45.710;9.590;2022-12-18T02:27:59;15.45;;;8.18;;
72949;SDS011;64868;45.710;9.590;2022-12-18T02:30:28;14.80;;;7.60;;
72949;SDS011;64868;45.710;9.590;2022-12-18T02:32:58;14.93;;;7.35;;
72949;SDS011;64868;45.710;9.590;2022-12-18T02:35:27;13.07;;;6.97;;
72949;SDS011;64868;45.710;9.590;2022-12-18T02:37:54;14.85;;;7.43;;
72949;SDS011;64868;45.710;9.590;2022-12-18T02:40:20;13.20;;;6.57;;
72949;SDS011;64868;45.710;9.590;2022-12-18T02:42:48;14.00;;;6.63;;
72949;SDS011;64868;45.710;9.590;2022-12-18T02:45:14;12.48;;;6.95;;
72949;SDS011;64868;45.710;9.590;2022-12-18T02:47:40;12.93;;;6.90;;
72949;SDS011;64868;45.710;9.590;2022-12-18T02:55:26;10.73;;;6.20;;
72949;SDS011;64868;45.710;9.590;2022-12-18T02:57:58;11.68;;;6.28;;
72949;SDS011;64868;45.710;9.590;2022-12-18T03:00:51;12.68;;;6.82;;
72949;SDS011;64868;45.710;9.590;2022-12-18T03:06:11;11.38;;;6.00;;
72949;SDS011;64868;45.710;9.590;2022-12-18T03:08:44;11.32;;;6.45;;
72949;SDS011;64868;45.710;9.590;2022-12-18T03:11:14;10.32;;;6.05;;
72949;SDS011;64868;45.710;9.590;2022-12-18T03:13:45;12.50;;;6.28;;
72949;SDS011;64868;45.710;9.590;2022-12-18T03:16:23;11.30;;;5.80;;
72949;SDS011;64868;45.710;9.590;2022-12-18T03:19:00;10.55;;;5.40;;
72949;SDS011;64868;45.710;9.590;2022-12-18T03:21:32;9.75;;;5.13;;
72949;SDS011;64868;45.710;9.590;2022-12-18T03:24:07;10.50;;;4.90;;
72949;SDS011;64868;45.710;9.590;2022-12-18T03:26:36;9.80;;;5.38;;
72949;SDS011;64868;45.710;9.590;2022-12-18T03:29:09;9.30;;;4.63;;
72949;SDS011;64868;45.710;9.590;2022-12-18T03:31:40;9.70;;;5.45;;
72949;SDS011;64868;45.710;9.590;2022-12-18T03:34:15;8.05;;;4.10;;
72949;SDS011;64868;45.710;9.590;2022-12-18T03:36:46;9.07;;;4.22;;
72949;SDS011;64868;45.710;9.590;2022-12-18T03:39:12;9.02;;;4.40;;
72949;SDS011;64868;45.710;9.590;2022-12-18T03:41:42;11.02;;;4.40;;
72949;SDS011;64868;45.710;9.590;2022-12-18T03:44:42;8.52;;;4.53;;
72949;SDS011;64868;45.710;9.590;2022-12-18T03:47:19;9.13;;;4.03;;
72949;SDS011;64868;45.710;9.590;2022-12-18T03:52:36;10.52;;;4.60;;
72949;SDS011;64868;45.710;9.590;2022-12-18T03:55:02;8.50;;;4.28;;
72949;SDS011;64868;45.710;9.590;2022-12-18T03:57:30;8.77;;;4.28;;
72949;SDS011;64868;45.710;9.590;2022-12-18T04:00:05;9.35;;;4.25;;
72949;SDS011;64868;45.710;9.590;2022-12-18T04:02:34;8.20;;;3.85;;
72949;SDS011;64868;45.710;9.590;2022-12-18T04:07:32;10.90;;;4.57;;
72949;SDS011;64868;45.710;9.590;2022-12-18T04:09:58;8.52;;;4.28;;
72949;SDS011;64868;45.710;9.590;2022-12-18T04:12:28;8.73;;;4.20;;
72949;SDS011;64868;45.710;9.590;2022-12-18T04:14:54;9.48;;;4.15;;
72949;SDS011;64868;45.710;9.590;2022-12-18T04:17:19;12.90;;;4.40;;
72949;SDS011;64868;45.710;9.590;2022-12-18T04:19:45;9.02;;;4.40;;
72949;SDS011;64868;45.710;9.590;2022-12-18T04:22:10;11.80;;;5.35;;
72949;SDS011;64868;45.710;9.590;2022-12-18T04:24:36;11.80;;;5.38;;
72949;SDS011;64868;45.710;9.590;2022-12-18T04:27:02;9.07;;;4.78;;
72949;SDS011;64868;45.710;9.590;2022-12-18T04:29:27;9.45;;;4.70;;
72949;SDS011;64868;45.710;9.590;2022-12-18T04:31:53;9.90;;;4.43;;
72949;SDS011;64868;45.710;9.590;2022-12-18T04:34:19;8.98;;;4.40;;
72949;SDS011;64868;45.710;9.590;2022-12-18T04:36:45;10.60;;;4.80;;
72949;SDS011;64868;45.710;9.590;2022-12-18T04:39:10;9.35;;;4.32;;
72949;SDS011;64868;45.710;9.590;2022-12-18T04:41:36;9.32;;;4.40;;
72949;SDS011;64868;45.710;9.590;2022-12-18T04:44:02;8.13;;;4.07;;
72949;SDS011;64868;45.710;9.590;2022-12-18T04:46:27;8.80;;;3.88;;
72949;SDS011;64868;45.710;9.590;2022-12-18T04:48:53;10.27;;;3.90;;
72949;SDS011;64868;45.710;9.590;2022-12-18T04:51:18;9.98;;;3.90;;
72949;SDS011;64868;45.710;9.590;2022-12-18T04:53:43;8.65;;;3.70;;
72949;SDS011;64868;45.710;9.590;2022-12-18T04:56:10;9.93;;;3.95;;
72949;SDS011;64868;45.710;9.590;2022-12-18T04:58:38;8.25;;;4.03;;
72949;SDS011;64868;45.710;9.590;2022-12-18T05:01:04;8.38;;;4.18;;
72949;SDS011;64868;45.710;9.590;2022-12-18T05:03:30;7.63;;;3.40;;
72949;SDS011;64868;45.710;9.590;2022-12-18T05:05:56;7.70;;;3.30;;
72949;SDS011;64868;45.710;9.590;2022-12-18T05:08:22;8.13;;;3.67;;
72949;SDS011;64868;45.710;9.590;2022-12-18T05:10:48;7.93;;;3.50;;
72949;SDS011;64868;45.710;9.590;2022-12-18T05:13:13;8.65;;;4.07;;
72949;SDS011;64868;45.710;9.590;2022-12-18T05:15:39;8.43;;;3.55;;
72949;SDS011;64868;45.710;9.590;2022-12-18T05:18:04;8.15;;;3.55;;
72949;SDS011;64868;45.710;9.590;2022-12-18T05:20:30;9.65;;;3.53;;
72949;SDS011;64868;45.710;9.590;2022-12-18T05:22:56;8.48;;;3.45;;
72949;SDS011;64868;45.710;9.590;2022-12-18T05:25:21;8.00;;;3.40;;
72949;SDS011;64868;45.710;9.590;2022-12-18T05:27:47;8.70;;;3.88;;
72949;SDS011;64868;45.710;9.590;2022-12-18T05:30:13;8.98;;;3.90;;
72949;SDS011;64868;45.710;9.590;2022-12-18T05:32:40;8.25;;;3.55;;
72949;SDS011;64868;45.710;9.590;2022-12-18T05:35:06;8.10;;;3.85;;
72949;SDS011;64868;45.710;9.590;2022-12-18T05:37:33;9.32;;;3.85;;
72949;SDS011;64868;45.710;9.590;2022-12-18T05:39:58;8.45;;;4.20;;
72949;SDS011;64868;45.710;9.590;2022-12-18T05:42:24;8.95;;;3.55;;
72949;SDS011;64868;45.710;9.590;2022-12-18T05:44:49;7.43;;;3.50;;
72949;SDS011;64868;45.710;9.590;2022-12-18T05:47:15;8.05;;;4.07;;
72949;SDS011;64868;45.710;9.590;2022-12-18T05:49:40;7.82;;;3.10;;
72949;SDS011;64868;45.710;9.590;2022-12-18T05:52:06;6.72;;;2.78;;
72949;SDS011;64868;45.710;9.590;2022-12-18T05:54:31;6.82;;;2.92;;
72949;SDS011;64868;45.710;9.590;2022-12-18T05:56:57;7.63;;;3.28;;
72949;SDS011;64868;45.710;9.590;2022-12-18T05:59:23;6.22;;;2.72;;
72949;SDS011;64868;45.710;9.590;2022-12-18T06:01:48;7.40;;;3.13;;
72949;SDS011;64868;45.710;9.590;2022-12-18T06:04:14;7.47;;;3.25;;
72949;SDS011;64868;45.710;9.590;2022-12-18T06:06:39;7.63;;;2.90;;
72949;SDS011;64868;45.710;9.590;2022-12-18T06:09:05;7.00;;;3.03;;
72949;SDS011;64868;45.710;9.590;2022-12-18T06:11:34;7.45;;;3.00;;
72949;SDS011;64868;45.710;9.590;2022-12-18T06:14:00;7.18;;;2.85;;
72949;SDS011;64868;45.710;9.590;2022-12-18T06:16:26;6.97;;;2.75;;
72949;SDS011;64868;45.710;9.590;2022-12-18T06:18:53;6.50;;;2.83;;
72949;SDS011;64868;45.710;9.590;2022-12-18T06:21:21;7.32;;;3.25;;
72949;SDS011;64868;45.710;9.590;2022-12-18T06:23:46;7.70;;;3.28;;
72949;SDS011;64868;45.710;9.590;2022-12-18T06:26:12;8.57;;;3.20;;
72949;SDS011;64868;45.710;9.590;2022-12-18T06:28:38;7.25;;;3.00;;
72949;SDS011;64868;45.710;9.590;2022-12-18T06:31:03;6.50;;;2.85;;
72949;SDS011;64868;45.710;9.590;2022-12-18T06:33:30;9.05;;;4.05;;
72949;SDS011;64868;45.710;9.590;2022-12-18T06:36:03;6.97;;;3.13;;
72949;SDS011;64868;45.710;9.590;2022-12-18T06:38:31;7.57;;;2.95;;
72949;SDS011;64868;45.710;9.590;2022-12-18T06:40:58;6.88;;;2.90;;
72949;SDS011;64868;45.710;9.590;2022-12-18T06:43:23;6.75;;;2.90;;
72949;SDS011;64868;45.710;9.590;2022-12-18T06:45:49;7.50;;;2.88;;
72949;SDS011;64868;45.710;9.590;2022-12-18T06:48:18;8.18;;;3.45;;
72949;SDS011;64868;45.710;9.590;2022-12-18T06:50:44;8.77;;;4.25;;
72949;SDS011;64868;45.710;9.590;2022-12-18T06:53:10;8.05;;;3.40;;
72949;SDS011;64868;45.710;9.590;2022-12-18T06:55:35;7.05;;;3.15;;
72949;SDS011;64868;45.710;9.590;2022-12-18T06:58:01;8.43;;;3.38;;
72949;SDS011;64868;45.710;9.590;2022-12-18T07:00:26;7.20;;;3.35;;
72949;SDS011;64868;45.710;9.590;2022-12-18T07:02:51;9.85;;;3.63;;
72949;SDS011;64868;45.710;9.590;2022-12-18T07:05:17;8.02;;;3.40;;
72949;SDS011;64868;45.710;9.590;2022-12-18T07:07:42;7.47;;;3.35;;
72949;SDS011;64868;45.710;9.590;2022-12-18T07:10:08;7.75;;;3.22;;
72949;SDS011;64868;45.710;9.590;2022-12-18T07:12:33;6.75;;;2.90;;
72949;SDS011;64868;45.710;9.590;2022-12-18T07:14:59;7.32;;;2.90;;
72949;SDS011;64868;45.710;9.590;2022-12-18T07:17:24;9.48;;;3.05;;
72949;SDS011;64868;45.710;9.590;2022-12-18T07:19:50;6.38;;;2.80;;
72949;SDS011;64868;45.710;9.590;2022-12-18T07:22:15;8.32;;;2.95;;
72949;SDS011;64868;45.710;9.590;2022-12-18T07:24:41;7.47;;;3.08;;
72949;SDS011;64868;45.710;9.590;2022-12-18T07:27:06;7.25;;;3.20;;
72949;SDS011;64868;45.710;9.590;2022-12-18T07:29:32;10.52;;;4.40;;
72949;SDS011;64868;45.710;9.590;2022-12-18T07:31:57;10.55;;;5.07;;
72949;SDS011;64868;45.710;9.590;2022-12-18T07:34:22;9.40;;;4.07;;
72949;SDS011;64868;45.710;9.590;2022-12-18T07:36:48;7.15;;;2.97;;
72949;SDS011;64868;45.710;9.590;2022-12-18T07:39:13;10.00;;;3.40;;
72949;SDS011;64868;45.710;9.590;2022-12-18T07:41:39;7.25;;;3.13;;
72949;SDS011;64868;45.710;9.590;2022-12-18T07:44:10;7.47;;;3.25;;
72949;SDS011;64868;45.710;9.590;2022-12-18T07:46:36;8.07;;;3.38;;
72949;SDS011;64868;45.710;9.590;2022-12-18T07:49:02;7.20;;;3.33;;
72949;SDS011;64868;45.710;9.590;2022-12-18T07:51:27;8.52;;;3.15;;
72949;SDS011;64868;45.710;9.590;2022-12-18T07:53:53;7.97;;;3.25;;
72949;SDS011;64868;45.710;9.590;2022-12-18T07:56:18;11.23;;;3.70;;
72949;SDS011;64868;45.710;9.590;2022-12-18T07:58:45;8.15;;;3.47;;
72949;SDS011;64868;45.710;9.590;2022-12-18T08:01:11;8.52;;;3.67;;
72949;SDS011;64868;45.710;9.590;2022-12-18T08:03:37;8.15;;;3.60;;
72949;SDS011;64868;45.710;9.590;2022-12-18T08:06:04;7.75;;;3.22;;
72949;SDS011;64868;45.710;9.590;2022-12-18T08:08:31;8.00;;;3.35;;
72949;SDS011;64868;45.710;9.590;2022-12-18T08:10:57;7.32;;;3.25;;
72949;SDS011;64868;45.710;9.590;2022-12-18T08:13:23;7.82;;;3.95;;
72949;SDS011;64868;45.710;9.590;2022-12-18T08:16:03;8.10;;;3.45;;
72949;SDS011;64868;45.710;9.590;2022-12-18T08:18:33;7.90;;;3.05;;
72949;SDS011;64868;45.710;9.590;2022-12-18T08:21:12;7.32;;;3.03;;
72949;SDS011;64868;45.710;9.590;2022-12-18T08:23:40;6.47;;;2.47;;
72949;SDS011;64868;45.710;9.590;2022-12-18T08:26:05;6.88;;;2.58;;
72949;SDS011;64868;45.710;9.590;2022-12-18T08:28:31;7.03;;;2.67;;
72949;SDS011;64868;45.710;9.590;2022-12-18T08:30:57;6.75;;;2.55;;
72949;SDS011;64868;45.710;9.590;2022-12-18T08:33:22;7.57;;;2.88;;
72949;SDS011;64868;45.710;9.590;2022-12-18T08:35:48;7.78;;;2.78;;
72949;SDS011;64868;45.710;9.590;2022-12-18T08:38:13;6.20;;;2.75;;
72949;SDS011;64868;45.710;9.590;2022-12-18T08:40:38;6.93;;;2.65;;
72949;SDS011;64868;45.710;9.590;2022-12-18T08:43:04;7.68;;;3.28;;
72949;SDS011;64868;45.710;9.590;2022-12-18T08:45:48;8.05;;;2.70;;
72949;SDS011;64868;45.710;9.590;2022-12-18T08:48:14;6.72;;;2.65;;
72949;SDS011;64868;45.710;9.590;2022-12-18T08:50:40;7.65;;;3.22;;
72949;SDS011;64868;45.710;9.590;2022-12-18T08:53:05;7.10;;;2.72;;
72949;SDS011;64868;45.710;9.590;2022-12-18T08:55:31;7.65;;;3.05;;
72949;SDS011;64868;45.710;9.590;2022-12-18T08:57:56;9.80;;;3.53;;
72949;SDS011;64868;45.710;9.590;2022-12-18T09:00:22;7.03;;;2.95;;
72949;SDS011;64868;45.710;9.590;2022-12-18T09:02:47;10.02;;;3.38;;
72949;SDS011;64868;45.710;9.590;2022-12-18T09:05:12;7.45;;;3.30;;
72949;SDS011;64868;45.710;9.590;2022-12-18T09:07:38;7.22;;;3.00;;
72949;SDS011;64868;45.710;9.590;2022-12-18T09:10:04;7.32;;;2.83;;
72949;SDS011;64868;45.710;9.590;2022-12-18T09:12:30;8.98;;;3.38;;
72949;SDS011;64868;45.710;9.590;2022-12-18T09:14:55;9.13;;;3.40;;
72949;SDS011;64868;45.710;9.590;2022-12-18T09:17:21;7.65;;;3.33;;
72949;SDS011;64868;45.710;9.590;2022-12-18T09:19:46;7.18;;;3.08;;
72949;SDS011;64868;45.710;9.590;2022-12-18T09:22:12;8.50;;;3.00;;
72949;SDS011;64868;45.710;9.590;2022-12-18T09:24:37;8.55;;;3.50;;
72949;SDS011;64868;45.710;9.590;2022-12-18T09:27:03;7.70;;;3.33;;
72949;SDS011;64868;45.710;9.590;2022-12-18T09:29:28;7.43;;;3.50;;
72949;SDS011;64868;45.710;9.590;2022-12-18T09:31:54;7.70;;;3.90;;
72949;SDS011;64868;45.710;9.590;2022-12-18T09:34:19;9.15;;;3.72;;
72949;SDS011;64868;45.710;9.590;2022-12-18T09:36:46;7.05;;;3.72;;
72949;SDS011;64868;45.710;9.590;2022-12-18T09:39:12;7.80;;;3.55;;
72949;SDS011;64868;45.710;9.590;2022-12-18T09:49:30;10.75;;;4.15;;
72949;SDS011;64868;45.710;9.590;2022-12-18T09:52:09;8.10;;;3.72;;
72949;SDS011;64868;45.710;9.590;2022-12-18T09:54:41;9.23;;;4.18;;
72949;SDS011;64868;45.710;9.590;2022-12-18T09:57:13;9.15;;;5.00;;
72949;SDS011;64868;45.710;9.590;2022-12-18T09:59:42;12.40;;;7.07;;
72949;SDS011;64868;45.710;9.590;2022-12-18T10:02:15;10.65;;;6.50;;
72949;SDS011;64868;45.710;9.590;2022-12-18T10:04:43;17.35;;;8.63;;
72949;SDS011;64868;45.710;9.590;2022-12-18T10:07:16;13.35;;;7.15;;
72949;SDS011;64868;45.710;9.590;2022-12-18T10:10:02;12.98;;;7.75;;
72949;SDS011;64868;45.710;9.590;2022-12-18T10:12:46;13.00;;;6.80;;
72949;SDS011;64868;45.710;9.590;2022-12-18T10:18:27;13.95;;;6.72;;
72949;SDS011;64868;45.710;9.590;2022-12-18T10:21:04;11.02;;;6.32;;
72949;SDS011;64868;45.710;9.590;2022-12-18T10:26:24;12.05;;;7.13;;
72949;SDS011;64868;45.710;9.590;2022-12-18T10:28:50;14.15;;;8.70;;
72949;SDS011;64868;45.710;9.590;2022-12-18T10:31:17;12.77;;;7.47;;
72949;SDS011;64868;45.710;9.590;2022-12-18T10:33:45;12.75;;;7.15;;
72949;SDS011;64868;45.710;9.590;2022-12-18T10:36:11;11.77;;;6.90;;
72949;SDS011;64868;45.710;9.590;2022-12-18T10:38:37;12.60;;;6.30;;
72949;SDS011;64868;45.710;9.590;2022-12-18T10:41:07;13.18;;;7.15;;
72949;SDS011;64868;45.710;9.590;2022-12-18T10:44:10;17.27;;;8.77;;
72949;SDS011;64868;45.710;9.590;2022-12-18T10:46:37;15.95;;;7.82;;
72949;SDS011;64868;45.710;9.590;2022-12-18T10:49:03;13.13;;;7.05;;
72949;SDS011;64868;45.710;9.590;2022-12-18T10:54:14;12.63;;;7.03;;
72949;SDS011;64868;45.710;9.590;2022-12-18T10:56:43;14.23;;;7.57;;
72949;SDS011;64868;45.710;9.590;2022-12-18T10:59:09;13.20;;;7.65;;
72949;SDS011;64868;45.710;9.590;2022-12-18T11:04:50;10.45;;;6.18;;
72949;SDS011;64868;45.710;9.590;2022-12-18T11:07:17;10.50;;;6.35;;
72949;SDS011;64868;45.710;9.590;2022-12-18T11:09:42;10.25;;;6.05;;
72949;SDS011;64868;45.710;9.590;2022-12-18T11:12:15;9.77;;;5.85;;
72949;SDS011;64868;45.710;9.590;2022-12-18T11:14:43;11.75;;;6.65;;
72949;SDS011;64868;45.710;9.590;2022-12-18T11:17:19;11.25;;;7.22;;
72949;SDS011;64868;45.710;9.590;2022-12-18T11:19:51;9.85;;;6.05;;
72949;SDS011;64868;45.710;9.590;2022-12-18T11:22:25;10.75;;;6.65;;
72949;SDS011;64868;45.710;9.590;2022-12-18T11:27:24;10.95;;;7.15;;
72949;SDS011;64868;45.710;9.590;2022-12-18T11:29:51;10.25;;;6.78;;
72949;SDS011;64868;45.710;9.590;2022-12-18T11:32:36;12.07;;;6.78;;
72949;SDS011;64868;45.710;9.590;2022-12-18T11:38:10;11.95;;;6.78;;
72949;SDS011;64868;45.710;9.590;2022-12-18T11:40:45;11.70;;;6.45;;
72949;SDS011;64868;45.710;9.590;2022-12-18T11:43:17;11.73;;;6.85;;
72949;SDS011;64868;45.710;9.590;2022-12-18T11:46:05;11.60;;;6.53;;
72949;SDS011;64868;45.710;9.590;2022-12-18T11:48:39;12.05;;;6.53;;
72949;SDS011;64868;45.710;9.590;2022-12-18T11:51:11;11.13;;;6.90;;
72949;SDS011;64868;45.710;9.590;2022-12-18T11:53:52;11.40;;;6.07;;
72949;SDS011;64868;45.710;9.590;2022-12-18T11:56:27;11.10;;;6.35;;
72949;SDS011;64868;45.710;9.590;2022-12-18T12:02:29;12.93;;;6.28;;
72949;SDS011;64868;45.710;9.590;2022-12-18T12:05:05;10.23;;;6.03;;
72949;SDS011;64868;45.710;9.590;2022-12-18T12:16:09;9.88;;;5.60;;
72949;SDS011;64868;45.710;9.590;2022-12-18T12:18:58;9.35;;;5.05;;
72949;SDS011;64868;45.710;9.590;2022-12-18T12:40:34;14.60;;;8.23;;
72949;SDS011;64868;45.710;9.590;2022-12-18T12:43:05;15.25;;;8.85;;
72949;SDS011;64868;45.710;9.590;2022-12-18T12:51:26;18.17;;;11.00;;
72949;SDS011;64868;45.710;9.590;2022-12-18T12:53:53;17.67;;;10.68;;
72949;SDS011;64868;45.710;9.590;2022-12-18T12:56:21;19.77;;;10.73;;
72949;SDS011;64868;45.710;9.590;2022-12-18T13:01:29;17.70;;;10.48;;
72949;SDS011;64868;45.710;9.590;2022-12-18T13:06:35;14.90;;;8.75;;
72949;SDS011;64868;45.710;9.590;2022-12-18T13:09:07;16.13;;;9.30;;
72949;SDS011;64868;45.710;9.590;2022-12-18T13:14:31;17.85;;;8.73;;
72949;SDS011;64868;45.710;9.590;2022-12-18T13:17:23;17.67;;;9.77;;
72949;SDS011;64868;45.710;9.590;2022-12-18T13:20:04;17.67;;;10.20;;
72949;SDS011;64868;45.710;9.590;2022-12-18T13:22:35;18.75;;;10.77;;
72949;SDS011;64868;45.710;9.590;2022-12-18T13:28:08;21.90;;;11.15;;
72949;SDS011;64868;45.710;9.590;2022-12-18T13:30:44;18.10;;;10.80;;
72949;SDS011;64868;45.710;9.590;2022-12-18T13:38:21;22.63;;;12.52;;
72949;SDS011;64868;45.710;9.590;2022-12-18T13:48:25;20.83;;;11.55;;
72949;SDS011;64868;45.710;9.590;2022-12-18T13:51:05;23.17;;;12.95;;
72949;SDS011;64868;45.710;9.590;2022-12-18T13:53:36;19.60;;;11.13;;
72949;SDS011;64868;45.710;9.590;2022-12-18T13:56:08;22.95;;;12.07;;
72949;SDS011;64868;45.710;9.590;2022-12-18T13:58:33;21.08;;;11.95;;
72949;SDS011;64868;45.710;9.590;2022-12-18T14:00:59;21.08;;;11.40;;
72949;SDS011;64868;45.710;9.590;2022-12-18T14:03:27;22.73;;;12.63;;
72949;SDS011;64868;45.710;9.590;2022-12-18T14:06:01;21.77;;;11.98;;
72949;SDS011;64868;45.710;9.590;2022-12-18T14:08:36;21.10;;;12.00;;
72949;SDS011;64868;45.710;9.590;2022-12-18T14:11:04;22.27;;;12.00;;
72949;SDS011;64868;45.710;9.590;2022-12-18T14:13:33;22.25;;;11.57;;
72949;SDS011;64868;45.710;9.590;2022-12-18T14:16:06;21.88;;;12.63;;
72949;SDS011;64868;45.710;9.590;2022-12-18T14:18:44;24.00;;;13.32;;
72949;SDS011;64868;45.710;9.590;2022-12-18T14:21:23;23.38;;;13.32;;
72949;SDS011;64868;45.710;9.590;2022-12-18T14:24:05;22.63;;;11.82;;
72949;SDS011;64868;45.710;9.590;2022-12-18T14:26:37;22.15;;;11.95;;
72949;SDS011;64868;45.710;9.590;2022-12-18T14:34:45;25.38;;;13.18;;
72949;SDS011;64868;45.710;9.590;2022-12-18T14:37:13;22.08;;;12.65;;
72949;SDS011;64868;45.710;9.590;2022-12-18T14:39:40;21.40;;;12.63;;
72949;SDS011;64868;45.710;9.590;2022-12-18T14:42:05;22.15;;;12.52;;
72949;SDS011;64868;45.710;9.590;2022-12-18T14:44:34;23.83;;;12.98;;
72949;SDS011;64868;45.710;9.590;2022-12-18T14:47:00;23.35;;;12.40;;
72949;SDS011;64868;45.710;9.590;2022-12-18T14:49:27;23.73;;;12.50;;
72949;SDS011;64868;45.710;9.590;2022-12-18T14:51:57;28.88;;;13.80;;
72949;SDS011;64868;45.710;9.590;2022-12-18T14:54:25;27.20;;;15.32;;
72949;SDS011;64868;45.710;9.590;2022-12-18T14:57:06;26.27;;;14.63;;
72949;SDS011;64868;45.710;9.590;2022-12-18T14:59:46;27.15;;;14.02;;
72949;SDS011;64868;45.710;9.590;2022-12-18T15:04:46;29.38;;;15.57;;
72949;SDS011;64868;45.710;9.590;2022-12-18T15:12:37;28.00;;;15.60;;
72949;SDS011;64868;45.710;9.590;2022-12-18T15:20:39;31.50;;;16.73;;
72949;SDS011;64868;45.710;9.590;2022-12-18T15:23:14;39.80;;;17.92;;
72949;SDS011;64868;45.710;9.590;2022-12-18T15:25:42;28.33;;;16.45;;
72949;SDS011;64868;45.710;9.590;2022-12-18T15:28:25;30.35;;;16.83;;
72949;SDS011;64868;45.710;9.590;2022-12-18T15:31:00;32.22;;;17.65;;
72949;SDS011;64868;45.710;9.590;2022-12-18T15:33:33;37.08;;;18.88;;
72949;SDS011;64868;45.710;9.590;2022-12-18T15:36:04;32.53;;;16.42;;
72949;SDS011;64868;45.710;9.590;2022-12-18T15:38:33;32.10;;;18.48;;
72949;SDS011;64868;45.710;9.590;2022-12-18T15:40:59;36.13;;;19.70;;
72949;SDS011;64868;45.710;9.590;2022-12-18T15:43:25;37.22;;;19.00;;
72949;SDS011;64868;45.710;9.590;2022-12-18T15:45:59;37.05;;;20.38;;
72949;SDS011;64868;45.710;9.590;2022-12-18T15:48:25;35.03;;;19.85;;
72949;SDS011;64868;45.710;9.590;2022-12-18T15:50:50;37.65;;;20.88;;
72949;SDS011;64868;45.710;9.590;2022-12-18T15:53:18;38.50;;;20.63;;
72949;SDS011;64868;45.710;9.590;2022-12-18T15:55:44;39.97;;;21.55;;
72949;SDS011;64868;45.710;9.590;2022-12-18T15:58:30;42.13;;;22.23;;
72949;SDS011;64868;45.710;9.590;2022-12-18T16:00:55;44.55;;;22.20;;
72949;SDS011;64868;45.710;9.590;2022-12-18T16:03:23;46.30;;;23.88;;
72949;SDS011;64868;45.710;9.590;2022-12-18T16:05:49;46.25;;;25.40;;
72949;SDS011;64868;45.710;9.590;2022-12-18T16:08:14;48.67;;;25.98;;
72949;SDS011;64868;45.710;9.590;2022-12-18T16:10:39;50.38;;;27.40;;
72949;SDS011;64868;45.710;9.590;2022-12-18T16:13:06;50.03;;;26.80;;
72949;SDS011;64868;45.710;9.590;2022-12-18T16:15:34;58.72;;;31.80;;
72949;SDS011;64868;45.710;9.590;2022-12-18T16:18:00;54.03;;;29.73;;
72949;SDS011;64868;45.710;9.590;2022-12-18T16:20:25;58.13;;;30.63;;
72949;SDS011;64868;45.710;9.590;2022-12-18T16:22:51;53.88;;;29.40;;
72949;SDS011;64868;45.710;9.590;2022-12-18T16:25:22;57.55;;;31.27;;
72949;SDS011;64868;45.710;9.590;2022-12-18T16:27:50;54.55;;;29.77;;
72949;SDS011;64868;45.710;9.590;2022-12-18T16:30:18;58.75;;;31.67;;
72949;SDS011;64868;45.710;9.590;2022-12-18T16:32:45;58.22;;;30.80;;
72949;SDS011;64868;45.710;9.590;2022-12-18T16:35:12;53.75;;;30.00;;
72949;SDS011;64868;45.710;9.590;2022-12-18T16:37:39;57.88;;;30.00;;
72949;SDS011;64868;45.710;9.590;2022-12-18T16:40:06;52.33;;;29.17;;
72949;SDS011;64868;45.710;9.590;2022-12-18T16:42:34;54.17;;;28.42;;
72949;SDS011;64868;45.710;9.590;2022-12-18T16:45:02;49.33;;;28.25;;
72949;SDS011;64868;45.710;9.590;2022-12-18T16:47:28;51.30;;;28.00;;
72949;SDS011;64868;45.710;9.590;2022-12-18T16:49:53;55.55;;;29.70;;
72949;SDS011;64868;45.710;9.590;2022-12-18T16:52:19;52.70;;;28.70;;
72949;SDS011;64868;45.710;9.590;2022-12-18T16:54:45;51.42;;;27.30;;
72949;SDS011;64868;45.710;9.590;2022-12-18T16:57:12;51.60;;;28.52;;
72949;SDS011;64868;45.710;9.590;2022-12-18T16:59:39;48.58;;;26.98;;
72949;SDS011;64868;45.710;9.590;2022-12-18T17:02:05;53.10;;;26.98;;
72949;SDS011;64868;45.710;9.590;2022-12-18T17:04:35;46.70;;;26.65;;